createdAt,value
2023-03-12T00:00:22.744Z,95.97
2023-03-12T00:02:51.948Z,95.68
2023-03-12T00:05:19.892Z,96.25
2023-03-12T00:07:47.687Z,95.96
2023-03-12T00:10:15.551Z,95.90
2023-03-12T00:12:43.433Z,96.50
2023-03-12T00:15:12.282Z,95.71
2023-03-12T00:17:40.192Z,96.02
2023-03-12T00:20:12.014Z,95.79
2023-03-12T00:22:40.341Z,96.05
2023-03-12T00:25:14.986Z,95.35
2023-03-12T00:27:43.708Z,95.39
2023-03-12T00:30:12.944Z,95.22
2023-03-12T00:32:41.305Z,94.94
2023-03-12T00:35:10.929Z,94.67
2023-03-12T00:37:38.950Z,94.42
2023-03-12T00:40:09.177Z,94.73
2023-03-12T00:42:37.063Z,95.08
2023-03-12T00:45:05.511Z,95.06
2023-03-12T00:47:33.489Z,95.17
2023-03-12T00:50:01.497Z,94.73
2023-03-12T00:52:30.924Z,94.94
2023-03-12T00:54:59.632Z,94.57
2023-03-12T00:57:27.690Z,94.89
2023-03-12T00:59:55.614Z,94.65
2023-03-12T01:02:23.471Z,95.01
2023-03-12T01:04:51.331Z,94.71
2023-03-12T01:07:19.287Z,94.63
2023-03-12T01:09:48.504Z,94.29
2023-03-12T01:12:16.313Z,94.45
2023-03-12T01:14:44.296Z,94.92
2023-03-12T01:17:12.215Z,94.51
2023-03-12T01:19:40.168Z,94.63
2023-03-12T01:22:08.064Z,95.28
2023-03-12T01:24:35.957Z,95.41
2023-03-12T01:27:05.491Z,94.97
2023-03-12T01:29:33.388Z,95.36
2023-03-12T01:32:01.323Z,94.54
2023-03-12T01:34:30.685Z,94.82
2023-03-12T01:36:58.596Z,95.23
2023-03-12T01:39:26.773Z,94.95
2023-03-12T01:41:54.583Z,94.60
2023-03-12T01:44:23.958Z,94.98
2023-03-12T01:46:51.893Z,95.30
2023-03-12T01:49:23.033Z,95.48
2023-03-12T01:51:56.622Z,95.61
2023-03-12T01:54:28.597Z,96.00
2023-03-12T01:56:57.999Z,96.76
2023-03-12T01:59:32.289Z,96.82
2023-03-12T02:02:00.896Z,96.70
2023-03-12T02:04:32.183Z,97.18
2023-03-12T02:07:05.297Z,97.35
2023-03-12T02:09:34.714Z,97.76
2023-03-12T02:12:03.528Z,98.10
2023-03-12T02:14:33.320Z,98.09
2023-03-12T02:17:01.564Z,98.35
2023-03-12T02:19:39.454Z,98.17
2023-03-12T02:22:07.530Z,98.11
2023-03-12T02:24:42.016Z,98.30
2023-03-12T02:27:13.115Z,98.38
2023-03-12T02:29:43.386Z,98.68
2023-03-12T02:32:18.555Z,98.80
2023-03-12T02:34:48.072Z,99.18
2023-03-12T02:37:15.889Z,98.86
2023-03-12T02:39:45.599Z,99.12
2023-03-12T02:42:16.020Z,99.37
2023-03-12T02:44:44.565Z,99.48
2023-03-12T02:47:12.739Z,99.40
2023-03-12T02:49:40.844Z,99.36
2023-03-12T02:52:09.810Z,99.74
2023-03-12T02:54:37.710Z,99.88
2023-03-12T02:57:05.707Z,100.00
2023-03-12T02:59:35.119Z,100.00
2023-03-12T03:02:03.342Z,100.00
2023-03-12T03:04:34.058Z,100.00
2023-03-12T03:07:02.204Z,100.00
2023-03-12T03:09:30.044Z,100.00
2023-03-12T03:11:57.909Z,100.00
2023-03-12T03:14:25.847Z,100.00
2023-03-12T03:16:55.240Z,100.00
2023-03-12T03:19:23.063Z,100.00
2023-03-12T03:21:51.011Z,100.00
2023-03-12T03:24:18.953Z,100.00
2023-03-12T03:26:46.851Z,100.00
2023-03-12T03:29:14.868Z,100.00
2023-03-12T03:31:42.760Z,100.00
2023-03-12T03:34:12.815Z,100.00
2023-03-12T03:36:40.677Z,100.00
2023-03-12T03:39:08.524Z,100.00
2023-03-12T03:41:37.414Z,100.00
2023-03-12T03:44:07.736Z,100.00
2023-03-12T03:46:36.499Z,100.00
2023-03-12T03:49:05.006Z,100.00
2023-03-12T03:51:34.699Z,100.00
2023-03-12T03:54:02.738Z,100.00
2023-03-12T03:56:30.788Z,100.00
2023-03-12T03:58:59.181Z,100.00
2023-03-12T04:01:26.999Z,100.00
2023-03-12T04:03:55.204Z,100.00
2023-03-12T04:06:23.633Z,100.00
2023-03-12T04:08:53.414Z,100.00
2023-03-12T04:11:22.821Z,100.00
2023-03-12T04:13:51.709Z,100.00
2023-03-12T04:16:20.065Z,100.00
2023-03-12T04:18:47.988Z,100.00
2023-03-12T04:21:16.019Z,100.00
2023-03-12T04:23:43.826Z,100.00
2023-03-12T04:26:13.216Z,100.00
2023-03-12T04:28:41.092Z,100.00
2023-03-12T04:31:09.673Z,100.00
2023-03-12T04:33:40.055Z,100.00
2023-03-12T04:36:08.882Z,100.00
2023-03-12T04:38:36.932Z,100.00
2023-03-12T04:41:07.388Z,100.00
2023-03-12T04:43:36.967Z,100.00
2023-03-12T04:46:06.118Z,100.00
2023-03-12T04:48:35.378Z,100.00
2023-03-12T04:51:03.345Z,100.00
2023-03-12T04:53:31.412Z,100.00
2023-03-12T04:55:59.462Z,100.00
2023-03-12T04:58:27.378Z,100.00
2023-03-12T05:00:56.797Z,100.00
2023-03-12T05:03:24.807Z,100.00
2023-03-12T05:05:54.747Z,100.00
2023-03-12T05:08:22.751Z,100.00
2023-03-12T05:10:51.057Z,100.00
2023-03-12T05:13:20.833Z,100.00
2023-03-12T05:15:50.780Z,100.00
2023-03-12T05:18:21.547Z,100.00
2023-03-12T05:20:59.558Z,100.00
2023-03-12T05:23:27.592Z,100.00
2023-03-12T05:25:55.530Z,100.00
2023-03-12T05:28:27.815Z,100.00
2023-03-12T05:30:56.669Z,100.00
2023-03-12T05:33:26.312Z,100.00
2023-03-12T05:35:54.558Z,100.00
2023-03-12T05:38:22.488Z,100.00
2023-03-12T05:40:54.400Z,100.00
2023-03-12T05:43:23.027Z,100.00
2023-03-12T05:45:50.925Z,100.00
2023-03-12T05:48:19.026Z,100.00
2023-03-12T05:50:48.576Z,100.00
2023-03-12T05:53:16.566Z,100.00
2023-03-12T05:55:44.580Z,100.00
2023-03-12T05:58:12.343Z,100.00
2023-03-12T06:00:41.720Z,100.00
2023-03-12T06:03:10.094Z,100.00
2023-03-12T06:05:38.574Z,100.00
2023-03-12T06:08:08.614Z,100.00
2023-03-12T06:10:39.115Z,100.00
2023-03-12T06:13:07.511Z,100.00
2023-03-12T06:15:35.309Z,100.00
2023-03-12T06:18:03.247Z,99.08
2023-03-12T06:20:31.119Z,96.18
2023-03-12T06:22:58.959Z,93.35
2023-03-12T06:25:28.441Z,90.47
2023-03-12T06:27:56.546Z,87.13
2023-03-12T06:30:24.369Z,84.80
2023-03-12T06:32:52.311Z,82.40
2023-03-12T06:35:20.181Z,79.30
2023-03-12T06:37:47.997Z,78.34
2023-03-12T06:40:15.863Z,77.20
2023-03-12T06:42:45.098Z,76.43
2023-03-12T06:45:13.123Z,76.49
2023-03-12T06:47:40.987Z,77.28
2023-03-12T06:50:09.810Z,75.96
2023-03-12T06:52:37.770Z,75.91
2023-03-12T06:55:06.574Z,74.77
2023-03-12T06:57:34.606Z,74.60
2023-03-12T07:00:06.019Z,72.32
2023-03-12T07:02:34.061Z,73.22
2023-03-12T07:05:07.104Z,73.63
2023-03-12T07:07:35.599Z,74.14
2023-03-12T07:10:04.161Z,75.67
2023-03-12T07:12:34.009Z,76.57
2023-03-12T07:15:03.527Z,77.32
2023-03-12T07:17:32.447Z,79.72
2023-03-12T07:20:00.544Z,79.98
2023-03-12T07:22:28.678Z,79.59
2023-03-12T07:24:56.526Z,80.06
2023-03-12T07:27:24.307Z,80.72
2023-03-12T07:29:52.920Z,78.96
2023-03-12T07:32:24.729Z,77.94
2023-03-12T07:34:53.740Z,76.11
2023-03-12T07:37:21.992Z,76.18
2023-03-12T07:39:52.465Z,76.35
2023-03-12T07:42:20.613Z,75.39
2023-03-12T07:44:48.929Z,75.70
2023-03-12T07:47:24.025Z,75.76
2023-03-12T07:49:54.420Z,74.74
2023-03-12T07:52:23.668Z,75.50
2023-03-12T07:57:41.669Z,76.41
2023-03-12T08:00:14.193Z,77.35
2023-03-12T08:02:42.091Z,79.52
2023-03-12T08:05:11.792Z,80.70
2023-03-12T08:07:39.771Z,80.95
2023-03-12T08:10:12.347Z,80.94
2023-03-12T08:12:40.306Z,80.74
2023-03-12T08:15:09.712Z,80.50
2023-03-12T08:17:37.761Z,80.88
2023-03-12T08:20:09.435Z,80.81
2023-03-12T08:22:39.526Z,81.54
2023-03-12T08:25:11.185Z,81.71
2023-03-12T08:27:41.459Z,81.82
2023-03-12T08:30:11.042Z,81.33
2023-03-12T08:32:39.119Z,81.55
2023-03-12T08:35:08.303Z,81.81
2023-03-12T08:37:36.161Z,82.48
2023-03-12T08:40:13.053Z,83.49
2023-03-12T08:42:41.219Z,82.97
2023-03-12T08:45:11.513Z,82.63
2023-03-12T08:47:41.945Z,83.23
2023-03-12T08:50:12.797Z,82.16
2023-03-12T08:52:40.902Z,82.86
2023-03-12T08:55:11.416Z,82.65
2023-03-12T08:57:40.212Z,82.65
2023-03-12T09:00:12.634Z,81.99
2023-03-12T09:02:48.452Z,81.96
2023-03-12T09:05:17.112Z,80.26
2023-03-12T09:07:45.302Z,79.69
2023-03-12T09:10:15.235Z,78.71
2023-03-12T09:12:43.426Z,78.00
2023-03-12T09:15:13.878Z,77.95
2023-03-12T09:17:42.128Z,78.08
2023-03-12T09:20:23.368Z,78.34
2023-03-12T09:23:07.838Z,78.47
2023-03-12T09:25:39.039Z,76.71
2023-03-12T09:28:07.013Z,77.95
2023-03-12T09:30:35.883Z,77.39
2023-03-12T09:33:04.463Z,78.90
2023-03-12T09:35:34.151Z,79.05
2023-03-12T09:38:02.478Z,78.44
2023-03-12T09:40:39.191Z,77.22
2023-03-12T09:43:14.812Z,76.53
2023-03-12T09:45:46.842Z,75.43
2023-03-12T09:48:18.268Z,75.15
2023-03-12T09:50:48.933Z,75.27
2023-03-12T09:53:29.361Z,74.07
2023-03-12T09:55:59.439Z,74.43
2023-03-12T09:58:31.773Z,74.70
2023-03-12T10:01:08.849Z,74.02
2023-03-12T10:03:57.796Z,73.89
2023-03-12T10:06:30.887Z,75.29
2023-03-12T10:09:08.804Z,75.23
2023-03-12T10:11:49.876Z,75.20
2023-03-12T10:14:37.403Z,75.94
2023-03-12T10:17:26.788Z,75.75
2023-03-12T10:20:23.521Z,75.62
2023-03-12T10:23:04.280Z,74.90
2023-03-12T10:25:42.048Z,76.70
2023-03-12T10:28:16.485Z,76.71
2023-03-12T10:30:51.192Z,76.87
2023-03-12T10:33:21.196Z,77.29
2023-03-12T10:35:50.630Z,76.09
2023-03-12T10:38:23.132Z,76.37
2023-03-12T10:40:50.878Z,76.65
2023-03-12T10:43:18.634Z,76.71
2023-03-12T10:45:58.976Z,75.37
2023-03-12T10:48:27.799Z,76.69
2023-03-12T10:51:04.236Z,76.53
2023-03-12T10:53:34.684Z,75.69
2023-03-12T10:56:05.931Z,75.93
2023-03-12T10:58:39.175Z,76.70
2023-03-12T11:01:19.262Z,75.13
2023-03-12T11:03:47.350Z,74.47
2023-03-12T11:06:23.175Z,72.91
2023-03-12T11:09:16.370Z,72.63
2023-03-12T11:11:47.481Z,73.58
2023-03-12T11:14:20.125Z,71.97
2023-03-12T11:16:50.306Z,70.78
2023-03-12T11:19:29.134Z,71.09
2023-03-12T11:21:59.849Z,71.86
2023-03-12T11:24:28.084Z,73.56
2023-03-12T11:27:00.901Z,72.84
2023-03-12T11:29:31.394Z,71.93
2023-03-12T11:32:06.170Z,71.77
2023-03-12T11:34:37.308Z,72.30
2023-03-12T11:37:14.405Z,70.82
2023-03-12T11:39:54.468Z,68.74
2023-03-12T11:42:38.889Z,69.09
2023-03-12T11:45:18.781Z,69.17
2023-03-12T11:48:00.522Z,69.46
2023-03-12T11:50:38.102Z,70.38
2023-03-12T11:53:17.465Z,70.68
2023-03-12T11:55:57.017Z,70.20
2023-03-12T11:58:41.292Z,69.74
2023-03-12T12:01:13.209Z,69.93
2023-03-12T12:04:13.115Z,70.74
2023-03-12T12:06:54.097Z,71.13
2023-03-12T12:09:29.879Z,72.13
2023-03-12T12:12:12.557Z,69.61
2023-03-12T12:15:10.377Z,69.24
2023-03-12T12:17:53.444Z,69.51
2023-03-12T12:20:32.275Z,68.76
2023-03-12T12:23:11.446Z,69.03
2023-03-12T12:25:53.480Z,70.87
2023-03-12T12:28:37.142Z,69.72
2023-03-12T12:31:20.016Z,70.17
2023-03-12T12:34:03.090Z,69.81
2023-03-12T12:36:36.595Z,69.91
2023-03-12T12:39:11.128Z,68.95
2023-03-12T12:41:44.124Z,68.12
2023-03-12T12:44:15.976Z,68.20
2023-03-12T12:46:48.955Z,65.64
2023-03-12T12:49:23.641Z,63.98
2023-03-12T12:51:58.598Z,62.75
2023-03-12T12:54:35.291Z,62.35
2023-03-12T12:57:08.671Z,64.01
2023-03-12T12:59:41.854Z,63.66
2023-03-12T13:02:18.324Z,63.21
2023-03-12T13:04:47.719Z,63.58
2023-03-12T13:07:35.061Z,63.88
2023-03-12T13:10:08.366Z,64.35
2023-03-12T13:12:44.028Z,65.43
2023-03-12T13:15:39.955Z,62.76
2023-03-12T13:18:22.123Z,61.97
2023-03-12T13:21:10.599Z,60.82
2023-03-12T13:23:51.618Z,60.36
2023-03-12T13:26:27.139Z,59.73
2023-03-12T13:29:12.239Z,59.08
2023-03-12T13:31:43.150Z,59.29
2023-03-12T13:34:42.743Z,58.03
2023-03-12T13:37:22.017Z,59.32
2023-03-12T13:39:52.269Z,60.11
2023-03-12T13:42:37.095Z,58.36
2023-03-12T13:45:26.489Z,58.86
2023-03-12T13:47:59.425Z,59.79
2023-03-12T13:50:28.325Z,60.10
2023-03-12T13:53:04.105Z,60.44
2023-03-12T13:55:36.065Z,60.27
2023-03-12T13:58:09.716Z,61.81
2023-03-12T14:00:41.426Z,62.18
2023-03-12T14:03:16.101Z,62.55
2023-03-12T14:05:53.358Z,61.50
2023-03-12T14:08:40.344Z,62.32
2023-03-12T14:11:24.948Z,62.26
2023-03-12T14:14:41.371Z,61.42
2023-03-12T14:17:17.480Z,61.72
2023-03-12T14:19:49.254Z,62.22
2023-03-12T14:22:22.641Z,62.57
2023-03-12T14:24:54.078Z,63.02
2023-03-12T14:27:28.068Z,63.13
2023-03-12T14:29:59.457Z,63.32
2023-03-12T14:32:31.285Z,63.80
2023-03-12T14:35:09.428Z,63.99
2023-03-12T14:37:41.760Z,64.86
2023-03-12T14:40:21.948Z,64.78
2023-03-12T14:42:51.537Z,66.11
2023-03-12T14:45:21.416Z,66.02
2023-03-12T14:47:54.024Z,66.74
2023-03-12T14:50:24.814Z,66.83
2023-03-12T14:52:53.061Z,67.23
2023-03-12T14:55:23.848Z,67.57
2023-03-12T14:58:04.690Z,68.16
2023-03-12T15:00:32.530Z,68.66
2023-03-12T15:03:04.980Z,68.56
2023-03-12T15:05:34.040Z,69.39
2023-03-12T15:08:04.384Z,69.46
2023-03-12T15:10:34.147Z,69.03
2023-03-12T15:13:04.270Z,69.73
2023-03-12T15:15:42.525Z,69.42
2023-03-12T15:18:16.786Z,69.99
2023-03-12T15:20:45.027Z,70.27
2023-03-12T15:23:15.244Z,71.01
2023-03-12T15:25:44.779Z,71.71
2023-03-12T15:28:29.411Z,72.01
2023-03-12T15:31:10.107Z,71.41
2023-03-12T15:33:41.247Z,72.10
2023-03-12T15:36:24.947Z,72.67
2023-03-12T15:38:56.631Z,73.58
2023-03-12T15:41:29.167Z,74.40
2023-03-12T15:44:00.931Z,74.52
2023-03-12T15:46:29.851Z,75.51
2023-03-12T15:49:00.438Z,75.23
2023-03-12T15:51:34.545Z,76.00
2023-03-12T15:54:05.186Z,76.11
2023-03-12T15:56:35.490Z,76.17
2023-03-12T15:59:20.992Z,77.20
2023-03-12T16:01:52.768Z,77.57
2023-03-12T16:04:21.565Z,78.28
2023-03-12T16:06:50.663Z,78.89
2023-03-12T16:09:21.043Z,79.76
2023-03-12T16:11:49.557Z,80.68
2023-03-12T16:14:26.040Z,80.38
2023-03-12T16:17:05.562Z,81.32
2023-03-12T16:19:35.695Z,82.74
2023-03-12T16:22:05.747Z,82.64
2023-03-12T16:24:36.378Z,83.34
2023-03-12T16:27:05.236Z,84.26
2023-03-12T16:29:41.837Z,84.43
2023-03-12T16:32:13.278Z,85.80
2023-03-12T16:34:49.598Z,85.86
2023-03-12T16:37:18.557Z,87.12
2023-03-12T16:39:48.785Z,87.37
2023-03-12T16:42:19.117Z,88.09
2023-03-12T16:44:48.565Z,88.69
2023-03-12T16:47:16.478Z,90.21
2023-03-12T16:49:45.333Z,91.03
2023-03-12T16:52:19.177Z,91.93
2023-03-12T16:54:51.046Z,93.32
2023-03-12T16:57:28.497Z,93.43
2023-03-12T16:59:57.691Z,94.69
2023-03-12T17:02:25.500Z,95.28
2023-03-12T17:04:54.583Z,95.29
2023-03-12T17:07:23.392Z,96.28
2023-03-12T17:09:51.209Z,97.03
2023-03-12T17:12:23.842Z,97.67
2023-03-12T17:14:52.075Z,99.08
2023-03-12T17:17:23.246Z,99.53
2023-03-12T17:19:52.073Z,99.73
2023-03-12T17:22:21.415Z,100.00
2023-03-12T17:24:49.594Z,100.00
2023-03-12T17:27:17.729Z,100.00
2023-03-12T17:29:45.655Z,100.00
2023-03-12T17:32:13.777Z,100.00
2023-03-12T17:34:43.161Z,100.00
2023-03-12T17:37:11.767Z,100.00
2023-03-12T17:39:39.929Z,100.00
2023-03-12T17:42:07.766Z,100.00
2023-03-12T17:44:36.732Z,100.00
2023-03-12T17:47:04.641Z,100.00
2023-03-12T17:49:33.351Z,100.00
2023-03-12T17:52:04.569Z,100.00
2023-03-12T17:54:32.423Z,100.00
2023-03-12T17:57:00.394Z,100.00
2023-03-12T17:59:28.484Z,100.00
2023-03-12T18:01:56.518Z,100.00
2023-03-12T18:04:24.867Z,100.00
2023-03-12T18:06:53.921Z,100.00
2023-03-12T18:09:26.032Z,100.00
2023-03-12T18:11:53.960Z,100.00
2023-03-12T18:14:21.752Z,100.00
2023-03-12T18:16:50.197Z,100.00
2023-03-12T18:19:21.260Z,100.00
2023-03-12T18:21:49.250Z,100.00
2023-03-12T18:24:19.482Z,100.00
2023-03-12T18:26:50.467Z,100.00
2023-03-12T18:29:18.358Z,100.00
2023-03-12T18:31:46.229Z,100.00
2023-03-12T18:34:14.238Z,100.00
2023-03-12T18:36:44.243Z,100.00
2023-03-12T18:39:12.044Z,100.00
2023-03-12T18:41:41.941Z,100.00
2023-03-12T18:44:13.390Z,100.00
2023-03-12T18:46:41.421Z,100.00
2023-03-12T18:49:12.290Z,100.00
2023-03-12T18:51:40.223Z,100.00
2023-03-12T18:54:08.155Z,100.00
2023-03-12T18:56:39.222Z,100.00
2023-03-12T18:59:07.316Z,100.00
2023-03-12T19:01:36.772Z,100.00
2023-03-12T19:04:04.765Z,100.00
2023-03-12T19:06:47.859Z,100.00
2023-03-12T19:09:17.821Z,100.00
2023-03-12T19:11:47.464Z,100.00
2023-03-12T19:14:15.300Z,100.00
2023-03-12T19:16:44.787Z,100.00
2023-03-12T19:19:12.794Z,100.00
2023-03-12T19:21:43.652Z,100.00
2023-03-12T19:24:11.656Z,100.00
2023-03-12T19:26:39.571Z,100.00
2023-03-12T19:29:07.547Z,100.00
2023-03-12T19:31:38.269Z,100.00
2023-03-12T19:34:07.554Z,100.00
2023-03-12T19:36:35.413Z,100.00
2023-03-12T19:39:06.771Z,100.00
2023-03-12T19:41:40.617Z,100.00
2023-03-12T19:44:08.657Z,100.00
2023-03-12T19:46:41.741Z,100.00
2023-03-12T19:49:11.194Z,100.00
2023-03-12T19:51:41.422Z,100.00
2023-03-12T19:54:09.999Z,100.00
2023-03-12T19:56:37.873Z,100.00
2023-03-12T19:59:05.573Z,100.00
2023-03-12T20:01:39.788Z,100.00
2023-03-12T20:04:08.583Z,100.00
2023-03-12T20:06:38.062Z,100.00
2023-03-12T20:09:06.375Z,100.00
2023-03-12T20:11:35.684Z,100.00
2023-03-12T20:14:03.753Z,100.00
2023-03-12T20:16:31.978Z,100.00
2023-03-12T20:18:59.960Z,100.00
2023-03-12T20:21:30.533Z,100.00
2023-03-12T20:24:02.583Z,100.00
2023-03-12T20:26:32.959Z,100.00
2023-03-12T20:29:04.653Z,100.00
2023-03-12T20:31:35.621Z,100.00
2023-03-12T20:34:03.519Z,100.00
2023-03-12T20:36:31.834Z,100.00
2023-03-12T20:39:01.073Z,100.00
2023-03-12T20:41:34.498Z,100.00
2023-03-12T20:44:02.454Z,100.00
2023-03-12T20:46:30.597Z,100.00
2023-03-12T20:48:58.469Z,100.00
2023-03-12T20:51:26.707Z,100.00
2023-03-12T20:53:55.071Z,100.00
2023-03-12T20:56:24.341Z,100.00
2023-03-12T20:58:52.343Z,100.00
2023-03-12T21:01:20.627Z,100.00
2023-03-12T21:03:49.309Z,100.00
2023-03-12T21:06:19.872Z,100.00
2023-03-12T21:08:48.142Z,100.00
2023-03-12T21:11:16.436Z,100.00
2023-03-12T21:13:46.585Z,100.00
2023-03-12T21:16:16.079Z,100.00
2023-03-12T21:18:44.280Z,100.00
2023-03-12T21:21:15.521Z,100.00
2023-03-12T21:23:52.685Z,100.00
2023-03-12T21:26:24.475Z,100.00
2023-03-12T21:28:54.521Z,100.00
2023-03-12T21:31:26.705Z,100.00
2023-03-12T21:33:56.443Z,100.00
2023-03-12T21:36:30.746Z,100.00
2023-03-12T21:38:58.673Z,100.00
2023-03-12T21:41:26.524Z,100.00
2023-03-12T21:43:55.710Z,100.00
2023-03-12T21:46:28.144Z,100.00
2023-03-12T21:48:56.506Z,100.00
2023-03-12T21:51:25.960Z,100.00
2023-03-12T21:53:55.072Z,100.00
2023-03-12T21:56:22.944Z,100.00
2023-03-12T21:58:50.719Z,100.00
2023-03-12T22:01:20.012Z,100.00
2023-03-12T22:03:48.476Z,100.00
2023-03-12T22:06:17.214Z,100.00
2023-03-12T22:08:47.027Z,100.00
2023-03-12T22:11:15.608Z,100.00
2023-03-12T22:13:43.696Z,100.00
2023-03-12T22:16:13.483Z,100.00
2023-03-12T22:18:44.133Z,100.00
2023-03-12T22:21:15.934Z,100.00
2023-03-12T22:23:43.733Z,100.00
2023-03-12T22:26:11.531Z,100.00
2023-03-12T22:28:39.455Z,100.00
2023-03-12T22:31:09.155Z,100.00
2023-03-12T22:33:37.560Z,100.00
2023-03-12T22:36:09.225Z,100.00
2023-03-12T22:38:38.015Z,100.00
2023-03-12T22:41:14.111Z,100.00
2023-03-12T22:43:41.855Z,100.00
2023-03-12T22:46:09.671Z,100.00
2023-03-12T22:48:37.975Z,100.00
2023-03-12T22:51:07.681Z,100.00
2023-03-12T22:53:35.572Z,100.00
2023-03-12T22:56:05.442Z,100.00
2023-03-12T22:58:33.458Z,100.00
2023-03-12T23:01:02.058Z,100.00
2023-03-12T23:03:31.027Z,100.00
2023-03-12T23:05:59.524Z,100.00
2023-03-12T23:08:29.195Z,100.00
2023-03-12T23:10:59.115Z,100.00
2023-03-12T23:13:28.176Z,100.00
2023-03-12T23:15:56.584Z,100.00
2023-03-12T23:18:24.599Z,100.00
2023-03-12T23:20:59.693Z,100.00
2023-03-12T23:23:29.556Z,100.00
2023-03-12T23:25:58.679Z,100.00
2023-03-12T23:28:27.540Z,100.00
2023-03-12T23:30:56.605Z,100.00
2023-03-12T23:33:25.115Z,100.00
2023-03-12T23:35:57.413Z,100.00
2023-03-12T23:38:25.473Z,100.00
2023-03-12T23:40:55.003Z,100.00
2023-03-12T23:43:22.701Z,100.00
2023-03-12T23:45:56.770Z,100.00
2023-03-12T23:48:24.906Z,100.00
2023-03-12T23:50:52.760Z,100.00
2023-03-12T23:53:20.552Z,100.00
2023-03-12T23:55:57.617Z,100.00
2023-03-12T23:58:25.668Z,100.00
